Climatologie pour Saint-Brevin les Pins
Jour • Résumé pour février 10, 2017 Système :  Métrique    Anglais   Mixte
« - 1 jour
+ 1 jour »
Jour Semaine Mois Année Personnalisé
  Maximum : Minimum : Moyenne :
Température sous abri : 7.5 °C -0.2 °C 3.3 °C
Point de rosée : 2.3 °C -1.2 °C 0.5 °C
Humidité : 94 % 66 % 83 %
Vitesse du vent : 25.7 km/h 0.0 km/h 10.2 km/h
Rafale : 33.8 km/h - -
Direction :- - ENE
Pression : 1020.9 hPa 1015.8 hPa -
Précipitations : 0.0 mm    
Historical Graphs
 
 
Tableau de données pour février 10, 2017
Heure Tempé Pt rosée Pression Vent Vitesse Rafale Humidité Taux pluie (/hr) Soleil
00:15 4.6 °C 2.3 °C 1017.2 hPa East 11.3 km/h 24.1 km/h 85 % 0.0 mm 0 W/m2
00:20 4.7 °C 2.2 °C 1017.2 hPa ESE 4.8 km/h 24.1 km/h 84 % 0.0 mm 0 W/m2
00:25 4.7 °C 2.2 °C 1016.8 hPa East 14.5 km/h 27.4 km/h 84 % 0.0 mm 0 W/m2
00:30 4.8 °C 2.3 °C 1016.8 hPa East 16.1 km/h 29.0 km/h 84 % 0.0 mm 0 W/m2
00:45 4.8 °C 2.3 °C 1016.8 hPa ENE 11.3 km/h 25.7 km/h 84 % 0.0 mm 0 W/m2
00:55 4.8 °C 2.3 °C 1016.8 hPa SE 12.9 km/h 25.7 km/h 84 % 0.0 mm 0 W/m2
01:00 4.7 °C 2.1 °C 1016.8 hPa East 12.9 km/h 29.0 km/h 83 % 0.0 mm 0 W/m2
01:05 4.7 °C 2.1 °C 1016.8 hPa ESE 16.1 km/h 29.0 km/h 83 % 0.0 mm 0 W/m2
01:10 4.7 °C 2.1 °C 1016.8 hPa SSE 11.3 km/h 29.0 km/h 83 % 0.0 mm 0 W/m2
01:20 4.7 °C 2.1 °C 1016.8 hPa East 11.3 km/h 29.0 km/h 83 % 0.0 mm 0 W/m2
01:25 4.7 °C 1.9 °C 1016.8 hPa SE 11.3 km/h 29.0 km/h 82 % 0.0 mm 0 W/m2
01:30 4.7 °C 1.9 °C 1016.8 hPa ESE 17.7 km/h 29.0 km/h 82 % 0.0 mm 0 W/m2
01:40 4.7 °C 2.0 °C 1016.8 hPa East 12.9 km/h 25.7 km/h 83 % 0.0 mm 0 W/m2
01:45 4.6 °C 1.9 °C 1016.8 hPa East 20.9 km/h 25.7 km/h 83 % 0.0 mm 0 W/m2
01:55 4.3 °C 1.7 °C 1016.8 hPa ENE 6.4 km/h 27.4 km/h 83 % 0.0 mm 0 W/m2
02:00 4.1 °C 1.6 °C 1016.8 hPa East 3.2 km/h 17.7 km/h 84 % 0.0 mm 0 W/m2
02:05 3.8 °C 1.5 °C 1016.8 hPa East 8.0 km/h 17.7 km/h 85 % 0.0 mm 0 W/m2
02:10 3.8 °C 1.7 °C 1016.8 hPa East 14.5 km/h 16.1 km/h 86 % 0.0 mm 0 W/m2
02:15 3.6 °C 1.4 °C 1016.8 hPa East 4.8 km/h 16.1 km/h 86 % 0.0 mm 0 W/m2
02:25 3.2 °C 1.3 °C 1016.8 hPa East 3.2 km/h 16.1 km/h 87 % 0.0 mm 0 W/m2
02:30 3.2 °C 1.2 °C 1016.8 hPa East 4.8 km/h 12.9 km/h 87 % 0.0 mm 0 W/m2
02:35 3.1 °C 1.2 °C 1016.8 hPa East 8.0 km/h 16.1 km/h 87 % 0.0 mm 0 W/m2
02:55 2.7 °C 0.9 °C 1016.8 hPa ENE 11.3 km/h 14.5 km/h 88 % 0.0 mm 0 W/m2
03:00 2.5 °C 0.7 °C 1016.8 hPa ENE 6.4 km/h 14.5 km/h 88 % 0.0 mm 0 W/m2
03:10 2.2 °C 0.6 °C 1016.8 hPa East 8.0 km/h 16.1 km/h 89 % 0.0 mm 0 W/m2
03:20 2.0 °C 0.5 °C 1016.5 hPa ENE 12.9 km/h 17.7 km/h 90 % 0.0 mm 0 W/m2
03:25 1.9 °C 0.5 °C 1016.5 hPa East 11.3 km/h 17.7 km/h 90 % 0.0 mm 0 W/m2
03:35 1.8 °C 0.5 °C 1016.5 hPa East 16.1 km/h 17.7 km/h 91 % 0.0 mm 0 W/m2
03:40 1.8 °C 0.5 °C 1016.5 hPa ESE 9.7 km/h 17.7 km/h 91 % 0.0 mm 0 W/m2
03:45 1.7 °C 0.4 °C 1016.1 hPa East 14.5 km/h 17.7 km/h 91 % 0.0 mm 0 W/m2
04:00 1.4 °C 0.2 °C 1016.1 hPa ENE 6.4 km/h 24.1 km/h 92 % 0.0 mm 0 W/m2
04:10 1.3 °C 0.1 °C 1016.1 hPa East 11.3 km/h 17.7 km/h 92 % 0.0 mm 0 W/m2
04:15 1.2 °C 0.1 °C 1016.1 hPa East 12.9 km/h 17.7 km/h 92 % 0.0 mm 0 W/m2
04:20 1.2 °C 0.2 °C 1016.1 hPa ENE 14.5 km/h 17.7 km/h 93 % 0.0 mm 0 W/m2
04:25 1.2 °C 0.2 °C 1016.1 hPa East 11.3 km/h 17.7 km/h 93 % 0.0 mm 0 W/m2
04:30 1.1 °C 0.1 °C 1016.1 hPa ENE 4.8 km/h 17.7 km/h 93 % 0.0 mm 0 W/m2
04:40 0.9 °C -0.1 °C 1016.1 hPa ENE 12.9 km/h 16.1 km/h 93 % 0.0 mm 0 W/m2
04:45 0.9 °C -0.1 °C 1016.1 hPa East 9.7 km/h 16.1 km/h 93 % 0.0 mm 0 W/m2
04:50 0.8 °C -0.2 °C 1016.1 hPa ENE 14.5 km/h 19.3 km/h 93 % 0.0 mm 0 W/m2
05:00 0.8 °C -0.2 °C 1016.1 hPa East 8.0 km/h 20.9 km/h 93 % 0.0 mm 0 W/m2
05:05 0.8 °C -0.1 °C 1016.1 hPa East 8.0 km/h 20.9 km/h 94 % 0.0 mm 0 W/m2
05:10 0.7 °C -0.1 °C 1016.1 hPa East 14.5 km/h 17.7 km/h 94 % 0.0 mm 0 W/m2
05:15 0.7 °C -0.1 °C 1016.1 hPa East 12.9 km/h 17.7 km/h 94 % 0.0 mm 0 W/m2
05:25 0.7 °C -0.2 °C 1016.1 hPa East 6.4 km/h 16.1 km/h 94 % 0.0 mm 0 W/m2
05:30 0.7 °C -0.2 °C 1016.1 hPa East 4.8 km/h 14.5 km/h 94 % 0.0 mm 0 W/m2
05:35 0.7 °C -0.2 °C 1016.1 hPa East 4.8 km/h 16.1 km/h 94 % 0.0 mm 0 W/m2
05:40 0.6 °C -0.3 °C 1016.1 hPa ENE 8.0 km/h 16.1 km/h 94 % 0.0 mm 0 W/m2
05:45 0.6 °C -0.3 °C 1016.1 hPa East 4.8 km/h 19.3 km/h 94 % 0.0 mm 0 W/m2
05:50 0.6 °C -0.3 °C 1016.1 hPa East 16.1 km/h 20.9 km/h 94 % 0.0 mm 0 W/m2
05:55 0.5 °C -0.4 °C 1016.1 hPa ENE 14.5 km/h 22.5 km/h 94 % 0.0 mm 0 W/m2
06:00 0.5 °C -0.4 °C 1016.1 hPa ESE 9.7 km/h 22.5 km/h 94 % 0.0 mm 0 W/m2
06:10 0.4 °C -0.4 °C 1016.1 hPa East 3.2 km/h 24.1 km/h 94 % 0.0 mm 0 W/m2
06:15 0.4 °C -0.4 °C 1016.1 hPa East 11.3 km/h 20.9 km/h 94 % 0.0 mm 0 W/m2
06:20 0.4 °C -0.5 °C 1015.8 hPa East 4.8 km/h 20.9 km/h 94 % 0.0 mm 0 W/m2
06:25 0.4 °C -0.5 °C 1015.8 hPa ENE 12.9 km/h 20.9 km/h 94 % 0.0 mm 0 W/m2
06:30 0.4 °C -0.5 °C 1015.8 hPa ENE 12.9 km/h 20.9 km/h 94 % 0.0 mm 0 W/m2
06:35 0.4 °C -0.5 °C 1015.8 hPa East 12.9 km/h 22.5 km/h 94 % 0.0 mm 0 W/m2
06:40 0.4 °C -0.4 °C 1015.8 hPa East 16.1 km/h 24.1 km/h 94 % 0.0 mm 0 W/m2
06:45 0.5 °C -0.4 °C 1015.8 hPa East 20.9 km/h 24.1 km/h 94 % 0.0 mm 0 W/m2
06:55 0.5 °C -0.4 °C 1015.8 hPa East 4.8 km/h 24.1 km/h 94 % 0.0 mm 0 W/m2
07:00 0.5 °C -0.4 °C 1015.8 hPa ESE 6.4 km/h 22.5 km/h 94 % 0.0 mm 0 W/m2
07:05 0.4 °C -0.4 °C 1015.8 hPa East 14.5 km/h 22.5 km/h 94 % 0.0 mm 0 W/m2
07:10 0.4 °C -0.5 °C 1015.8 hPa ENE 8.0 km/h 17.7 km/h 94 % 0.0 mm 0 W/m2
07:15 0.4 °C -0.5 °C 1015.8 hPa East 8.0 km/h 17.7 km/h 94 % 0.0 mm 0 W/m2
07:20 0.3 °C -0.5 °C 1015.8 hPa ENE 11.3 km/h 20.9 km/h 94 % 0.0 mm 0 W/m2
07:25 0.4 °C -0.5 °C 1015.8 hPa East 16.1 km/h 20.9 km/h 94 % 0.0 mm 0 W/m2
07:30 0.4 °C -0.4 °C 1016.1 hPa ENE 4.8 km/h 22.5 km/h 94 % 0.0 mm 0 W/m2
07:40 0.4 °C -0.6 °C 1016.1 hPa East 11.3 km/h 24.1 km/h 93 % 0.0 mm 0 W/m2
07:45 0.4 °C -0.6 °C 1016.1 hPa East 4.8 km/h 24.1 km/h 93 % 0.0 mm 0 W/m2
07:50 0.4 °C -0.6 °C 1016.1 hPa ENE 8.0 km/h 22.5 km/h 93 % 0.0 mm 0 W/m2
07:55 0.4 °C -0.6 °C 1016.1 hPa East 6.4 km/h 22.5 km/h 93 % 0.0 mm 0 W/m2
08:00 0.4 °C -0.8 °C 1016.1 hPa East 11.3 km/h 22.5 km/h 92 % 0.0 mm 0 W/m2
08:05 0.3 °C -0.8 °C 1016.1 hPa East 12.9 km/h 30.6 km/h 92 % 0.0 mm 0 W/m2
08:10 0.3 °C -0.8 °C 1016.5 hPa ESE 12.9 km/h 30.6 km/h 92 % 0.0 mm 0 W/m2
08:15 0.3 °C -0.9 °C 1016.5 hPa ENE 14.5 km/h 22.5 km/h 92 % 0.0 mm 0 W/m2
08:25 0.2 °C -0.9 °C 1016.5 hPa East 4.8 km/h 22.5 km/h 92 % 0.0 mm 5 W/m2
08:30 0.2 °C -1.1 °C 1016.8 hPa ESE 4.8 km/h 20.9 km/h 91 % 0.0 mm 7 W/m2
08:35 0.2 °C -1.1 °C 1016.8 hPa East 4.8 km/h 19.3 km/h 91 % 0.0 mm 11 W/m2
08:40 0.1 °C -1.2 °C 1016.8 hPa East 12.9 km/h 24.1 km/h 91 % 0.0 mm 14 W/m2
08:45 0.2 °C -1.1 °C 1016.8 hPa East 14.5 km/h 24.1 km/h 91 % 0.0 mm 18 W/m2
08:50 0.2 °C -1.1 °C 1016.8 hPa East 16.1 km/h 20.9 km/h 91 % 0.0 mm 19 W/m2
08:55 0.2 °C -1.1 °C 1016.8 hPa ENE 4.8 km/h 22.5 km/h 91 % 0.0 mm 23 W/m2
09:00 0.2 °C -1.1 °C 1016.8 hPa ENE 8.0 km/h 22.5 km/h 91 % 0.0 mm 26 W/m2
09:10 0.3 °C -1.0 °C 1017.2 hPa East 12.9 km/h 24.1 km/h 91 % 0.0 mm 32 W/m2
09:15 0.4 °C -0.9 °C 1017.2 hPa ENE 8.0 km/h 22.5 km/h 91 % 0.0 mm 35 W/m2
09:20 0.5 °C -1.0 °C 1017.2 hPa East 8.0 km/h 22.5 km/h 90 % 0.0 mm 39 W/m2
09:25 0.6 °C -0.9 °C 1017.2 hPa ENE 14.5 km/h 20.9 km/h 90 % 0.0 mm 40 W/m2
09:30 0.7 °C -0.8 °C 1017.2 hPa ESE 12.9 km/h 20.9 km/h 90 % 0.0 mm 42 W/m2
09:35 0.8 °C -0.7 °C 1017.2 hPa East 9.7 km/h 20.9 km/h 90 % 0.0 mm 44 W/m2
09:40 0.8 °C -0.6 °C 1017.2 hPa East 4.8 km/h 25.7 km/h 90 % 0.0 mm 46 W/m2
09:45 0.9 °C -0.7 °C 1017.2 hPa ENE 14.5 km/h 25.7 km/h 89 % 0.0 mm 46 W/m2
09:55 1.2 °C -0.5 °C 1017.2 hPa East 14.5 km/h 27.4 km/h 88 % 0.0 mm 49 W/m2
10:00 1.3 °C -0.4 °C 1017.2 hPa East 20.9 km/h 24.1 km/h 88 % 0.0 mm 51 W/m2
10:05 1.5 °C -0.4 °C 1017.2 hPa ENE 17.7 km/h 22.5 km/h 87 % 0.0 mm 51 W/m2
10:10 1.7 °C -0.4 °C 1017.2 hPa ENE 11.3 km/h 24.1 km/h 86 % 0.0 mm 51 W/m2
10:15 1.8 °C -0.4 °C 1017.2 hPa NE 12.9 km/h 24.1 km/h 85 % 0.0 mm 230 W/m2
10:20 2.1 °C -0.2 °C 1017.2 hPa ENE 6.4 km/h 24.1 km/h 85 % 0.0 mm 243 W/m2
10:25 2.2 °C -0.2 °C 1017.5 hPa East 4.8 km/h 25.7 km/h 84 % 0.0 mm 257 W/m2
10:30 2.4 °C -0.2 °C 1017.5 hPa East 6.4 km/h 25.7 km/h 83 % 0.0 mm 267 W/m2
10:40 2.8 °C -0.2 °C 1017.5 hPa East 16.1 km/h 30.6 km/h 81 % 0.0 mm 290 W/m2
10:45 2.9 °C -0.2 °C 1017.5 hPa ESE 19.3 km/h 25.7 km/h 80 % 0.0 mm 297 W/m2
10:50 3.1 °C -0.2 °C 1017.5 hPa East 8.0 km/h 27.4 km/h 79 % 0.0 mm 309 W/m2
10:55 3.2 °C -0.3 °C 1017.8 hPa East 8.0 km/h 27.4 km/h 78 % 0.0 mm 316 W/m2
11:00 3.5 °C 0.0 °C 1017.8 hPa ESE 11.3 km/h 27.4 km/h 78 % 0.0 mm 327 W/m2
11:05 3.7 °C 0.0 °C 1017.8 hPa ESE 12.9 km/h 22.5 km/h 77 % 0.0 mm 338 W/m2
11:10 3.8 °C 0.2 °C 1017.8 hPa East 1.6 km/h 22.5 km/h 77 % 0.0 mm 345 W/m2
11:15 4.1 °C 0.0 °C 1017.8 hPa SE 11.3 km/h 33.8 km/h 75 % 0.0 mm 355 W/m2
11:20 3.9 °C -0.1 °C 1017.8 hPa ENE 16.1 km/h 33.8 km/h 75 % 0.0 mm 360 W/m2
11:25 4.2 °C 0.1 °C 1017.8 hPa East 11.3 km/h 33.8 km/h 75 % 0.0 mm 369 W/m2
11:30 4.2 °C 0.0 °C 1017.8 hPa ENE 14.5 km/h 27.4 km/h 74 % 0.0 mm 380 W/m2
11:35 4.4 °C 0.2 °C 1017.8 hPa ESE 12.9 km/h 27.4 km/h 74 % 0.0 mm 388 W/m2
11:40 4.7 °C 0.4 °C 1017.8 hPa East 12.9 km/h 27.4 km/h 74 % 0.0 mm 397 W/m2
11:45 4.7 °C 0.1 °C 1018.2 hPa East 25.7 km/h 27.4 km/h 72 % 0.0 mm 403 W/m2
11:50 4.8 °C 0.2 °C 1018.2 hPa ENE 16.1 km/h 27.4 km/h 72 % 0.0 mm 410 W/m2
11:55 5.2 °C 0.8 °C 1018.2 hPa East 9.7 km/h 27.4 km/h 73 % 0.0 mm 418 W/m2
12:00 5.3 °C 0.2 °C 1018.2 hPa ENE 16.1 km/h 27.4 km/h 70 % 0.0 mm 424 W/m2
12:10 5.3 °C 0.0 °C 1018.2 hPa NE 4.8 km/h 33.8 km/h 69 % 0.0 mm 432 W/m2
12:15 5.5 °C 0.5 °C 1018.2 hPa East 12.9 km/h 33.8 km/h 70 % 0.0 mm 439 W/m2
12:20 5.6 °C 0.1 °C 1018.2 hPa SE 11.3 km/h 30.6 km/h 68 % 0.0 mm 438 W/m2
12:25 5.6 °C 0.3 °C 1018.2 hPa ESE 19.3 km/h 30.6 km/h 69 % 0.0 mm 441 W/m2
12:30 5.8 °C 0.3 °C 1018.2 hPa NE 17.7 km/h 29.0 km/h 68 % 0.0 mm 446 W/m2
12:35 5.9 °C 0.4 °C 1018.2 hPa East 14.5 km/h 30.6 km/h 68 % 0.0 mm 454 W/m2
12:40 6.1 °C 0.2 °C 1018.2 hPa East 12.9 km/h 30.6 km/h 66 % 0.0 mm 454 W/m2
12:45 6.2 °C 0.5 °C 1018.2 hPa ESE 11.3 km/h 27.4 km/h 67 % 0.0 mm 459 W/m2
12:55 6.2 °C 0.3 °C 1018.2 hPa ESE 11.3 km/h 27.4 km/h 66 % 0.0 mm 462 W/m2
13:00 6.3 °C 0.6 °C 1018.2 hPa ENE 8.0 km/h 30.6 km/h 67 % 0.0 mm 457 W/m2
13:05 6.3 °C 0.6 °C 1018.2 hPa East 12.9 km/h 30.6 km/h 67 % 0.0 mm 459 W/m2
13:10 6.6 °C 0.9 °C 1018.2 hPa ESE 11.3 km/h 25.7 km/h 67 % 0.0 mm 457 W/m2
13:15 6.6 °C 1.1 °C 1018.2 hPa East 16.1 km/h 25.7 km/h 68 % 0.0 mm 450 W/m2
13:20 6.7 °C 0.8 °C 1018.2 hPa East 12.9 km/h 25.7 km/h 66 % 0.0 mm 457 W/m2
13:25 6.6 °C 0.9 °C 1018.2 hPa East 11.3 km/h 27.4 km/h 67 % 0.0 mm 457 W/m2
13:35 6.8 °C 1.3 °C 1018.2 hPa East 20.9 km/h 29.0 km/h 68 % 0.0 mm 452 W/m2
13:40 7.0 °C 1.3 °C 1018.2 hPa NE 8.0 km/h 25.7 km/h 67 % 0.0 mm 443 W/m2
13:45 7.2 °C 1.2 °C 1018.2 hPa East 11.3 km/h 29.0 km/h 66 % 0.0 mm 450 W/m2
13:50 7.1 °C 1.4 °C 1018.2 hPa ENE 3.2 km/h 29.0 km/h 67 % 0.0 mm 439 W/m2
13:55 6.9 °C 1.0 °C 1018.2 hPa ENE 20.9 km/h 29.0 km/h 66 % 0.0 mm 448 W/m2
14:00 6.9 °C 1.4 °C 1018.2 hPa NE 8.0 km/h 29.0 km/h 68 % 0.0 mm 446 W/m2
14:05 6.9 °C 1.2 °C 1018.2 hPa ENE 12.9 km/h 29.0 km/h 67 % 0.0 mm 443 W/m2
14:10 7.2 °C 1.3 °C 1018.2 hPa ENE 8.0 km/h 29.0 km/h 66 % 0.0 mm 432 W/m2
14:15 7.3 °C 1.6 °C 1018.2 hPa NE 16.1 km/h 27.4 km/h 67 % 0.0 mm 431 W/m2
14:25 7.0 °C 1.3 °C 1017.8 hPa East 8.0 km/h 29.0 km/h 67 % 0.0 mm 427 W/m2
14:30 7.1 °C 1.1 °C 1017.8 hPa NE 8.0 km/h 30.6 km/h 66 % 0.0 mm 415 W/m2
14:35 7.1 °C 1.3 °C 1017.8 hPa East 8.0 km/h 30.6 km/h 67 % 0.0 mm 411 W/m2
14:40 7.0 °C 1.5 °C 1017.8 hPa ENE 17.7 km/h 27.4 km/h 68 % 0.0 mm 401 W/m2
14:45 7.2 °C 1.3 °C 1017.8 hPa ESE 8.0 km/h 25.7 km/h 66 % 0.0 mm 397 W/m2
14:50 7.3 °C 1.8 °C 1017.8 hPa ENE 11.3 km/h 29.0 km/h 68 % 0.0 mm 392 W/m2
14:55 7.3 °C 1.8 °C 1017.8 hPa NE 17.7 km/h 29.0 km/h 68 % 0.0 mm 381 W/m2
15:00 7.4 °C 1.7 °C 1017.8 hPa ENE 19.3 km/h 27.4 km/h 67 % 0.0 mm 376 W/m2
15:10 7.3 °C 1.6 °C 1017.8 hPa East 17.7 km/h 25.7 km/h 67 % 0.0 mm 366 W/m2
15:15 7.3 °C 1.8 °C 1017.5 hPa ENE 11.3 km/h 27.4 km/h 68 % 0.0 mm 338 W/m2
15:20 7.4 °C 1.7 °C 1017.5 hPa East 12.9 km/h 27.4 km/h 67 % 0.0 mm 325 W/m2
15:25 7.3 °C 1.6 °C 1017.5 hPa ESE 19.3 km/h 33.8 km/h 67 % 0.0 mm 323 W/m2
15:30 7.3 °C 1.6 °C 1017.5 hPa NE 4.8 km/h 33.8 km/h 67 % 0.0 mm 320 W/m2
15:35 7.5 °C 2.0 °C 1017.8 hPa NE 4.8 km/h 27.4 km/h 68 % 0.0 mm 311 W/m2
15:40 7.4 °C 2.1 °C 1017.8 hPa NE 16.1 km/h 27.4 km/h 69 % 0.0 mm 299 W/m2
15:45 7.2 °C 1.9 °C 1017.8 hPa ENE 25.7 km/h 27.4 km/h 69 % 0.0 mm 283 W/m2
15:55 7.4 °C 2.3 °C 1017.8 hPa East 12.9 km/h 25.7 km/h 70 % 0.0 mm 267 W/m2
16:00 7.4 °C 2.1 °C 1017.8 hPa NE 14.5 km/h 24.1 km/h 69 % 0.0 mm 260 W/m2
16:05 7.4 °C 2.1 °C 1017.8 hPa NE 6.4 km/h 24.1 km/h 69 % 0.0 mm 244 W/m2
16:10 7.2 °C 2.1 °C 1017.8 hPa NNE 9.7 km/h 22.5 km/h 70 % 0.0 mm 232 W/m2
16:15 7.2 °C 2.1 °C 1017.8 hPa ENE 12.9 km/h 25.7 km/h 70 % 0.0 mm 232 W/m2
16:20 7.1 °C 1.7 °C 1017.8 hPa East 14.5 km/h 25.7 km/h 69 % 0.0 mm 211 W/m2
16:25 6.9 °C 1.6 °C 1017.8 hPa ENE 12.9 km/h 27.4 km/h 69 % 0.0 mm 211 W/m2
16:30 6.9 °C 1.6 °C 1017.8 hPa ENE 20.9 km/h 27.4 km/h 69 % 0.0 mm 195 W/m2
16:40 6.7 °C 1.2 °C 1017.8 hPa East 14.5 km/h 24.1 km/h 68 % 0.0 mm 179 W/m2
16:45 6.7 °C 1.6 °C 1017.8 hPa East 9.7 km/h 24.1 km/h 70 % 0.0 mm 146 W/m2
16:50 6.6 °C 1.7 °C 1017.8 hPa ENE 17.7 km/h 32.2 km/h 71 % 0.0 mm 132 W/m2
16:55 6.3 °C 1.6 °C 1017.8 hPa ENE 9.7 km/h 32.2 km/h 72 % 0.0 mm 102 W/m2
17:00 6.2 °C 1.5 °C 1017.8 hPa East 14.5 km/h 27.4 km/h 72 % 0.0 mm 62 W/m2
17:05 6.1 °C 1.2 °C 1017.8 hPa ENE 14.5 km/h 29.0 km/h 71 % 0.0 mm 58 W/m2
17:10 6.1 °C 1.4 °C 1017.8 hPa ENE 22.5 km/h 29.0 km/h 72 % 0.0 mm 56 W/m2
17:15 6.0 °C 1.5 °C 1017.8 hPa NE 8.0 km/h 25.7 km/h 73 % 0.0 mm 51 W/m2
17:25 5.8 °C 1.3 °C 1017.8 hPa ENE 16.1 km/h 27.4 km/h 73 % 0.0 mm 44 W/m2
17:30 5.7 °C 1.3 °C 1018.2 hPa ENE 19.3 km/h 27.4 km/h 73 % 0.0 mm 40 W/m2
17:35 5.6 °C 1.3 °C 1018.2 hPa East 11.3 km/h 22.5 km/h 74 % 0.0 mm 39 W/m2
17:40 5.4 °C 1.2 °C 1018.2 hPa ENE 14.5 km/h 20.9 km/h 74 % 0.0 mm 35 W/m2
17:45 5.3 °C 1.3 °C 1018.2 hPa East 14.5 km/h 20.9 km/h 75 % 0.0 mm 30 W/m2
17:50 5.3 °C 1.3 °C 1018.2 hPa East 12.9 km/h 25.7 km/h 75 % 0.0 mm 26 W/m2
17:55 5.2 °C 1.3 °C 1018.2 hPa East 16.1 km/h 25.7 km/h 76 % 0.0 mm 23 W/m2
18:00 5.1 °C 1.2 °C 1018.2 hPa ENE 8.0 km/h 20.9 km/h 76 % 0.0 mm 19 W/m2
18:10 4.8 °C 1.3 °C 1018.2 hPa ENE 14.5 km/h 20.9 km/h 78 % 0.0 mm 12 W/m2
18:15 4.7 °C 1.2 °C 1018.5 hPa ENE 4.8 km/h 19.3 km/h 78 % 0.0 mm 7 W/m2
18:20 4.4 °C 0.9 °C 1018.5 hPa ENE 4.8 km/h 16.1 km/h 78 % 0.0 mm 5 W/m2
18:25 4.2 °C 0.9 °C 1018.5 hPa ENE 4.8 km/h 14.5 km/h 79 % 0.0 mm 0 W/m2
18:30 4.0 °C 1.0 °C 1018.5 hPa NE 1.6 km/h 11.3 km/h 81 % 0.0 mm 0 W/m2
18:35 3.9 °C 1.1 °C 1018.5 hPa East 8.0 km/h 11.3 km/h 82 % 0.0 mm 0 W/m2
18:40 3.8 °C 1.0 °C 1018.8 hPa ENE 4.8 km/h 19.3 km/h 82 % 0.0 mm 0 W/m2
18:45 3.7 °C 1.1 °C 1018.5 hPa ENE 4.8 km/h 19.3 km/h 83 % 0.0 mm 0 W/m2
18:55 3.6 °C 0.9 °C 1018.8 hPa NE 1.6 km/h 17.7 km/h 83 % 0.0 mm 0 W/m2
19:00 3.6 °C 1.1 °C 1018.8 hPa NE 9.7 km/h 14.5 km/h 84 % 0.0 mm 0 W/m2
19:05 3.8 °C 1.2 °C 1018.8 hPa NE 11.3 km/h 19.3 km/h 83 % 0.0 mm 0 W/m2
19:10 3.9 °C 1.3 °C 1018.8 hPa ENE 8.0 km/h 20.9 km/h 83 % 0.0 mm 0 W/m2
19:15 3.9 °C 1.3 °C 1018.8 hPa North 6.4 km/h 20.9 km/h 83 % 0.0 mm 0 W/m2
19:20 3.8 °C 1.2 °C 1018.8 hPa ENE 11.3 km/h 17.7 km/h 83 % 0.0 mm 0 W/m2
19:25 3.7 °C 1.0 °C 1018.8 hPa ENE 8.0 km/h 16.1 km/h 83 % 0.0 mm 0 W/m2
19:30 3.6 °C 1.0 °C 1018.8 hPa NE 6.4 km/h 17.7 km/h 83 % 0.0 mm 0 W/m2
19:35 3.6 °C 0.9 °C 1019.2 hPa NE 11.3 km/h 20.9 km/h 83 % 0.0 mm 0 W/m2
19:40 3.6 °C 0.9 °C 1019.2 hPa NE 6.4 km/h 22.5 km/h 83 % 0.0 mm 0 W/m2
19:45 3.5 °C 0.9 °C 1019.2 hPa NNE 8.0 km/h 24.1 km/h 83 % 0.0 mm 0 W/m2
19:55 3.3 °C 0.9 °C 1019.2 hPa NE 17.7 km/h 19.3 km/h 84 % 0.0 mm 0 W/m2
20:00 3.3 °C 0.9 °C 1019.5 hPa NE 11.3 km/h 17.7 km/h 84 % 0.0 mm 0 W/m2
20:10 3.1 °C 0.7 °C 1019.5 hPa NE 9.7 km/h 17.7 km/h 84 % 0.0 mm 0 W/m2
20:15 2.9 °C 0.7 °C 1019.5 hPa NE 3.2 km/h 19.3 km/h 85 % 0.0 mm 0 W/m2
20:25 2.8 °C 0.6 °C 1019.5 hPa NE 6.4 km/h 12.9 km/h 85 % 0.0 mm 0 W/m2
20:30 2.8 °C 0.7 °C 1019.5 hPa Calm   14.5 km/h 86 % 0.0 mm 0 W/m2
20:40 2.4 °C 0.3 °C 1019.5 hPa NNE 8.0 km/h 12.9 km/h 86 % 0.0 mm 0 W/m2
20:45 2.3 °C 0.3 °C 1019.5 hPa NE 4.8 km/h 12.9 km/h 87 % 0.0 mm 0 W/m2
20:55 2.2 °C 0.4 °C 1019.5 hPa NNE 8.0 km/h 14.5 km/h 88 % 0.0 mm 0 W/m2
21:00 2.1 °C 0.1 °C 1019.5 hPa NE 6.4 km/h 14.5 km/h 87 % 0.0 mm 0 W/m2
21:10 1.8 °C 0.1 °C 1019.9 hPa NE 4.8 km/h 11.3 km/h 88 % 0.0 mm 0 W/m2
21:20 1.7 °C 0.1 °C 1019.9 hPa NE 6.4 km/h 14.5 km/h 89 % 0.0 mm 0 W/m2
21:25 1.6 °C 0.0 °C 1019.9 hPa NE 3.2 km/h 14.5 km/h 89 % 0.0 mm 0 W/m2
21:30 1.6 °C 0.0 °C 1019.9 hPa NE 3.2 km/h 12.9 km/h 89 % 0.0 mm 0 W/m2
21:40 1.5 °C -0.1 °C 1019.9 hPa NE 1.6 km/h 14.5 km/h 89 % 0.0 mm 0 W/m2
21:45 1.5 °C 0.0 °C 1019.9 hPa Calm   12.9 km/h 90 % 0.0 mm 0 W/m2
21:55 1.5 °C 0.0 °C 1019.9 hPa NNE 4.8 km/h 14.5 km/h 90 % 0.0 mm 0 W/m2
22:00 1.3 °C -0.1 °C 1019.9 hPa NE 4.8 km/h 12.9 km/h 90 % 0.0 mm 0 W/m2
22:10 1.1 °C -0.2 °C 1019.9 hPa ENE 1.6 km/h 11.3 km/h 91 % 0.0 mm 0 W/m2
22:15 1.1 °C -0.2 °C 1020.2 hPa NE 3.2 km/h 9.7 km/h 91 % 0.0 mm 0 W/m2
22:20 0.9 °C -0.4 °C 1020.2 hPa NNE 3.2 km/h 9.7 km/h 91 % 0.0 mm 0 W/m2
22:25 0.9 °C -0.4 °C 1020.2 hPa NE 3.2 km/h 11.3 km/h 91 % 0.0 mm 0 W/m2
22:30 0.8 °C -0.5 °C 1020.2 hPa NE 1.6 km/h 11.3 km/h 91 % 0.0 mm 0 W/m2
22:35 0.7 °C -0.6 °C 1020.5 hPa NE 6.4 km/h 8.0 km/h 91 % 0.0 mm 0 W/m2
22:40 0.7 °C -0.5 °C 1020.2 hPa NE 9.7 km/h 9.7 km/h 92 % 0.0 mm 0 W/m2
22:45 0.7 °C -0.5 °C 1020.5 hPa NE 4.8 km/h 11.3 km/h 92 % 0.0 mm 0 W/m2
22:50 0.7 °C -0.4 °C 1020.2 hPa ENE 1.6 km/h 11.3 km/h 92 % 0.0 mm 0 W/m2
23:00 0.5 °C -0.8 °C 1020.5 hPa Calm   6.4 km/h 91 % 0.0 mm 0 W/m2
23:10 0.1 °C -1.1 °C 1020.5 hPa NE 3.2 km/h 8.0 km/h 92 % 0.0 mm 0 W/m2
23:15 0.1 °C -0.9 °C 1020.5 hPa NE 3.2 km/h 8.0 km/h 93 % 0.0 mm 0 W/m2
23:25 0.1 °C -0.9 °C 1020.9 hPa NE 4.8 km/h 9.7 km/h 93 % 0.0 mm 0 W/m2
23:30 0.2 °C -0.8 °C 1020.9 hPa NE 3.2 km/h 8.0 km/h 93 % 0.0 mm 0 W/m2
23:35 0.2 °C -0.8 °C 1020.9 hPa NE 3.2 km/h 6.4 km/h 93 % 0.0 mm 0 W/m2
23:40 0.2 °C -0.8 °C 1020.9 hPa NE 1.6 km/h 4.8 km/h 93 % 0.0 mm 0 W/m2
23:45 0.2 °C -0.8 °C 1020.9 hPa Calm   4.8 km/h 93 % 0.0 mm 0 W/m2
23:50 -0.1 °C -1.1 °C 1020.9 hPa Calm   3.2 km/h 93 % 0.0 mm 0 W/m2
23:55 -0.2 °C -1.2 °C 1020.9 hPa Calm   3.2 km/h 93 % 0.0 mm 0 W/m2
Avec l'autorisation de Weather Underground - 1.5 mb